createdAt,value
2022-12-22T00:00:51.406Z,1000.60
2022-12-22T00:01:51.533Z,1000.59
2022-12-22T00:02:51.514Z,1000.58
2022-12-22T00:03:51.660Z,1000.54
2022-12-22T00:04:51.390Z,1000.50
2022-12-22T00:05:51.383Z,1000.53
2022-12-22T00:06:51.423Z,1000.54
2022-12-22T00:07:51.371Z,1000.52
2022-12-22T00:08:51.383Z,1000.52
2022-12-22T00:09:51.367Z,1000.51
2022-12-22T00:10:51.382Z,1000.48
2022-12-22T00:11:51.354Z,1000.48
2022-12-22T00:12:51.361Z,1000.43
2022-12-22T00:13:51.363Z,1000.44
2022-12-22T00:14:51.344Z,1000.36
2022-12-22T00:15:51.333Z,1000.37
2022-12-22T00:16:51.378Z,1000.33
2022-12-22T00:17:51.326Z,1000.31
2022-12-22T00:18:51.333Z,1000.33
2022-12-22T00:19:51.319Z,1000.28
2022-12-22T00:20:51.319Z,1000.28
2022-12-22T00:21:51.313Z,1000.27
2022-12-22T00:22:51.392Z,1000.29
2022-12-22T00:23:51.304Z,1000.25
2022-12-22T00:24:51.300Z,1000.22
2022-12-22T00:25:51.292Z,1000.21
2022-12-22T00:26:51.291Z,1000.16
2022-12-22T00:27:51.281Z,1000.18
2022-12-22T00:28:51.284Z,1000.13
2022-12-22T00:29:51.280Z,1000.12
2022-12-22T00:30:51.321Z,1000.13
2022-12-22T00:31:51.270Z,1000.11
2022-12-22T00:32:51.269Z,1000.09
2022-12-22T00:33:51.263Z,1000.07
2022-12-22T00:34:51.260Z,1000.07
2022-12-22T00:35:51.257Z,1000.05
2022-12-22T00:36:51.247Z,1000.04
2022-12-22T00:37:51.243Z,999.99
2022-12-22T00:38:51.272Z,999.96
2022-12-22T00:39:51.237Z,999.93
2022-12-22T00:40:51.231Z,999.91
2022-12-22T00:41:51.224Z,999.94
2022-12-22T00:42:51.235Z,999.90
2022-12-22T00:43:51.218Z,999.94
2022-12-22T00:44:51.212Z,999.92
2022-12-22T00:45:51.599Z,999.93
2022-12-22T00:46:51.207Z,999.94
2022-12-22T00:47:51.217Z,999.94
2022-12-22T00:48:51.198Z,999.93
2022-12-22T00:49:51.200Z,999.95
2022-12-22T00:50:51.200Z,999.94
2022-12-22T00:51:51.184Z,999.95
2022-12-22T00:52:51.182Z,999.95
2022-12-22T00:53:51.179Z,999.96
2022-12-22T00:54:51.195Z,999.96
2022-12-22T00:55:51.165Z,999.94
2022-12-22T00:56:51.166Z,999.95
2022-12-22T00:57:51.159Z,999.89
2022-12-22T00:58:51.160Z,999.90
2022-12-22T00:59:51.155Z,999.87
2022-12-22T01:00:51.151Z,999.87
2022-12-22T01:01:51.261Z,999.83
2022-12-22T01:02:51.274Z,999.82
2022-12-22T01:03:51.284Z,999.81
2022-12-22T01:04:51.127Z,999.78
2022-12-22T01:05:51.124Z,999.76
2022-12-22T01:06:51.120Z,999.74
2022-12-22T01:07:51.114Z,999.72
2022-12-22T01:08:51.111Z,999.66
2022-12-22T01:09:51.131Z,999.69
2022-12-22T01:10:51.144Z,999.65
2022-12-22T01:11:51.104Z,999.66
2022-12-22T01:12:51.092Z,999.63
2022-12-22T01:13:51.109Z,999.58
2022-12-22T01:14:51.087Z,999.51
2022-12-22T01:15:51.121Z,999.49
2022-12-22T01:16:51.072Z,999.50
2022-12-22T01:17:51.078Z,999.47
2022-12-22T01:18:51.067Z,999.47
2022-12-22T01:19:51.065Z,999.47
2022-12-22T01:20:51.059Z,999.45
2022-12-22T01:21:51.056Z,999.45
2022-12-22T01:22:51.049Z,999.43
2022-12-22T01:23:51.107Z,999.45
2022-12-22T01:24:51.042Z,999.42
2022-12-22T01:25:51.048Z,999.41
2022-12-22T01:26:51.050Z,999.36
2022-12-22T01:27:51.029Z,999.35
2022-12-22T01:28:51.024Z,999.40
2022-12-22T01:29:51.073Z,999.37
2022-12-22T01:30:51.090Z,999.41
2022-12-22T01:31:51.014Z,999.29
2022-12-22T01:32:51.014Z,999.27
2022-12-22T01:33:51.005Z,999.24
2022-12-22T01:34:51.000Z,999.21
2022-12-22T01:35:51.002Z,999.17
2022-12-22T01:36:50.990Z,999.15
2022-12-22T01:37:50.989Z,999.16
2022-12-22T01:38:50.984Z,999.14
2022-12-22T01:39:50.981Z,999.14
2022-12-22T01:40:50.974Z,999.10
2022-12-22T01:41:50.989Z,999.03
2022-12-22T01:42:50.989Z,999.03
2022-12-22T01:43:50.961Z,999.01
2022-12-22T01:44:50.956Z,999.04
2022-12-22T01:45:51.054Z,998.99
2022-12-22T01:46:51.125Z,998.92
2022-12-22T01:47:50.951Z,998.97
2022-12-22T01:48:50.956Z,999.01
2022-12-22T01:49:50.937Z,998.98
2022-12-22T01:50:50.940Z,998.96
2022-12-22T01:51:50.956Z,998.94
2022-12-22T01:52:50.941Z,998.93
2022-12-22T01:53:50.937Z,998.91
2022-12-22T01:54:50.917Z,998.86
2022-12-22T01:55:50.911Z,998.90
2022-12-22T01:56:50.906Z,998.88
2022-12-22T01:57:50.910Z,998.87
2022-12-22T01:58:50.928Z,998.87
2022-12-22T01:59:50.929Z,998.86
2022-12-22T02:00:50.889Z,998.88
2022-12-22T02:01:50.990Z,998.81
2022-12-22T02:02:51.077Z,998.81
2022-12-22T02:03:50.909Z,998.78
2022-12-22T02:04:50.883Z,998.76
2022-12-22T02:05:50.869Z,998.70
2022-12-22T02:06:56.199Z,998.74
2022-12-22T02:07:50.861Z,998.73
2022-12-22T02:08:50.858Z,998.74
2022-12-22T02:09:50.856Z,998.66
2022-12-22T02:10:50.851Z,998.64
2022-12-22T02:11:50.855Z,998.61
2022-12-22T02:12:50.848Z,998.62
2022-12-22T02:13:50.837Z,998.60
2022-12-22T02:14:50.856Z,998.51
2022-12-22T02:15:50.840Z,998.54
2022-12-22T02:16:50.827Z,998.51
2022-12-22T02:17:50.830Z,998.48
2022-12-22T02:18:50.819Z,998.49
2022-12-22T02:19:50.811Z,998.44
2022-12-22T02:20:50.808Z,998.42
2022-12-22T02:21:50.808Z,998.44
2022-12-22T02:22:50.797Z,998.44
2022-12-22T02:23:50.799Z,998.46
2022-12-22T02:24:50.789Z,998.42
2022-12-22T02:25:50.786Z,998.43
2022-12-22T02:26:50.786Z,998.39
2022-12-22T02:27:50.780Z,998.39
2022-12-22T02:28:50.777Z,998.38
2022-12-22T02:29:50.780Z,998.28
2022-12-22T02:30:50.868Z,998.24
2022-12-22T02:31:50.801Z,998.24
2022-12-22T02:32:50.759Z,998.22
2022-12-22T02:33:50.752Z,998.22
2022-12-22T02:34:50.746Z,998.21
2022-12-22T02:35:50.746Z,998.22
2022-12-22T02:36:50.739Z,998.18
2022-12-22T02:37:50.737Z,998.18
2022-12-22T02:38:50.753Z,998.17
2022-12-22T02:39:50.729Z,998.14
2022-12-22T02:40:50.725Z,998.11
2022-12-22T02:41:50.720Z,998.06
2022-12-22T02:42:50.716Z,998.08
2022-12-22T02:43:50.715Z,998.06
2022-12-22T02:44:50.709Z,998.04
2022-12-22T02:45:50.706Z,998.03
2022-12-22T02:46:50.741Z,998.03
2022-12-22T02:47:50.693Z,998.01
2022-12-22T02:48:50.688Z,998.00
2022-12-22T02:49:50.688Z,997.96
2022-12-22T02:50:50.694Z,997.97
2022-12-22T02:51:50.679Z,997.98
2022-12-22T02:52:50.680Z,997.99
2022-12-22T02:53:50.668Z,997.96
2022-12-22T02:54:50.666Z,997.96
2022-12-22T02:55:50.668Z,997.98
2022-12-22T02:56:50.661Z,997.95
2022-12-22T02:57:50.651Z,997.97
2022-12-22T02:58:50.645Z,997.93
2022-12-22T02:59:50.649Z,997.96
2022-12-22T03:00:50.642Z,997.95
2022-12-22T03:01:50.719Z,997.93
2022-12-22T03:02:50.921Z,997.88
2022-12-22T03:03:50.788Z,997.85
2022-12-22T03:04:50.622Z,997.87
2022-12-22T03:05:50.626Z,997.84
2022-12-22T03:06:50.625Z,997.83
2022-12-22T03:07:50.635Z,997.79
2022-12-22T03:08:50.614Z,997.75
2022-12-22T03:09:50.607Z,997.76
2022-12-22T03:10:50.603Z,997.72
2022-12-22T03:11:50.598Z,997.69
2022-12-22T03:12:50.599Z,997.67
2022-12-22T03:13:50.589Z,997.69
2022-12-22T03:14:50.584Z,997.69
2022-12-22T03:15:50.637Z,997.67
2022-12-22T03:16:50.574Z,997.71
2022-12-22T03:17:50.575Z,997.69
2022-12-22T03:18:50.586Z,997.68
2022-12-22T03:19:50.571Z,997.67
2022-12-22T03:20:50.558Z,997.67
2022-12-22T03:21:50.558Z,997.64
2022-12-22T03:22:50.550Z,997.65
2022-12-22T03:23:50.542Z,997.61
2022-12-22T03:24:50.542Z,997.60
2022-12-22T03:25:50.534Z,997.60
2022-12-22T03:26:50.537Z,997.53
2022-12-22T03:27:50.525Z,997.54
2022-12-22T03:28:50.524Z,997.52
2022-12-22T03:29:50.525Z,997.46
2022-12-22T03:30:50.516Z,997.46
2022-12-22T03:31:50.584Z,997.44
2022-12-22T03:32:50.506Z,997.41
2022-12-22T03:33:50.504Z,997.39
2022-12-22T03:34:50.524Z,997.38
2022-12-22T03:35:50.496Z,997.34
2022-12-22T03:36:50.492Z,997.35
2022-12-22T03:37:50.484Z,997.33
2022-12-22T03:38:50.494Z,997.30
2022-12-22T03:39:50.487Z,997.26
2022-12-22T03:40:50.497Z,997.30
2022-12-22T03:41:50.479Z,997.28
2022-12-22T03:42:50.467Z,997.28
2022-12-22T03:43:50.461Z,997.24
2022-12-22T03:44:50.464Z,997.33
2022-12-22T03:45:50.458Z,997.28
2022-12-22T03:46:50.554Z,997.26
2022-12-22T03:47:50.457Z,997.25
2022-12-22T03:48:50.442Z,997.23
2022-12-22T03:49:50.439Z,997.20
2022-12-22T03:50:50.462Z,997.18
2022-12-22T03:51:50.432Z,997.20
2022-12-22T03:52:50.426Z,997.20
2022-12-22T03:53:50.423Z,997.21
2022-12-22T03:54:50.421Z,997.18
2022-12-22T03:55:50.413Z,997.11
2022-12-22T03:56:50.422Z,997.14
2022-12-22T03:57:50.416Z,997.09
2022-12-22T03:58:50.407Z,997.10
2022-12-22T03:59:50.399Z,997.09
2022-12-22T04:00:50.435Z,997.09
2022-12-22T04:01:50.600Z,997.09
2022-12-22T04:02:50.565Z,997.08
2022-12-22T04:03:50.381Z,997.05
2022-12-22T04:04:50.377Z,997.10
2022-12-22T04:05:50.372Z,997.08
2022-12-22T04:06:50.397Z,997.06
2022-12-22T04:07:50.362Z,997.07
2022-12-22T04:08:50.367Z,997.05
2022-12-22T04:09:50.355Z,997.02
2022-12-22T04:10:50.350Z,997.07
2022-12-22T04:11:50.350Z,997.03
2022-12-22T04:12:50.345Z,996.97
2022-12-22T04:13:50.340Z,997.00
2022-12-22T04:14:50.335Z,997.01
2022-12-22T04:15:50.329Z,997.00
2022-12-22T04:16:50.363Z,996.94
2022-12-22T04:17:50.327Z,996.96
2022-12-22T04:18:50.332Z,996.92
2022-12-22T04:19:50.312Z,996.91
2022-12-22T04:20:50.309Z,996.90
2022-12-22T04:21:50.303Z,996.86
2022-12-22T04:22:50.322Z,996.85
2022-12-22T04:23:50.297Z,996.86
2022-12-22T04:24:50.291Z,996.87
2022-12-22T04:25:50.292Z,996.80
2022-12-22T04:26:50.299Z,996.78
2022-12-22T04:27:50.278Z,996.75
2022-12-22T04:28:50.318Z,996.79
2022-12-22T04:29:50.276Z,996.79
2022-12-22T04:30:50.268Z,996.76
2022-12-22T04:31:50.377Z,996.74
2022-12-22T04:32:50.264Z,996.71
2022-12-22T04:33:50.260Z,996.72
2022-12-22T04:34:50.252Z,996.69
2022-12-22T04:35:50.249Z,996.71
2022-12-22T04:36:50.244Z,996.69
2022-12-22T04:37:50.295Z,996.65
2022-12-22T04:38:50.274Z,996.64
2022-12-22T04:39:50.247Z,996.64
2022-12-22T04:40:50.228Z,996.67
2022-12-22T04:41:50.225Z,996.65
2022-12-22T04:42:50.219Z,996.66
2022-12-22T04:43:50.214Z,996.63
2022-12-22T04:44:50.211Z,996.61
2022-12-22T04:45:50.264Z,996.62
2022-12-22T04:46:50.203Z,996.60
2022-12-22T04:47:50.203Z,996.64
2022-12-22T04:48:53.261Z,996.64
2022-12-22T04:49:50.190Z,996.64
2022-12-22T04:50:50.186Z,996.60
2022-12-22T04:51:50.180Z,996.61
2022-12-22T04:52:50.181Z,996.57
2022-12-22T04:53:50.181Z,996.62
2022-12-22T04:54:50.221Z,996.58
2022-12-22T04:55:50.166Z,996.59
2022-12-22T04:56:50.163Z,996.55
2022-12-22T04:57:50.158Z,996.59
2022-12-22T04:58:50.162Z,996.61
2022-12-22T04:59:50.152Z,996.60
2022-12-22T05:00:50.216Z,996.58
2022-12-22T05:01:50.209Z,996.56
2022-12-22T05:02:50.290Z,996.56
2022-12-22T05:03:50.222Z,996.56
2022-12-22T05:04:50.135Z,996.55
2022-12-22T05:05:50.126Z,996.57
2022-12-22T05:06:50.134Z,996.55
2022-12-22T05:07:50.118Z,996.54
2022-12-22T05:08:50.116Z,996.56
2022-12-22T05:09:50.111Z,996.52
2022-12-22T05:10:50.131Z,996.53
2022-12-22T05:11:50.099Z,996.51
2022-12-22T05:12:50.101Z,996.52
2022-12-22T05:13:50.097Z,996.51
2022-12-22T05:14:50.090Z,996.48
2022-12-22T05:15:50.082Z,996.41
2022-12-22T05:16:50.113Z,996.41
2022-12-22T05:17:50.089Z,996.38
2022-12-22T05:18:50.079Z,996.40
2022-12-22T05:19:50.076Z,996.37
2022-12-22T05:20:50.072Z,996.33
2022-12-22T05:21:50.060Z,996.37
2022-12-22T05:22:50.076Z,996.31
2022-12-22T05:23:50.110Z,996.31
2022-12-22T05:24:50.051Z,996.30
2022-12-22T05:25:50.043Z,996.31
2022-12-22T05:26:50.063Z,996.34
2022-12-22T05:27:50.055Z,996.35
2022-12-22T05:28:50.035Z,996.35
2022-12-22T05:29:50.036Z,996.35
2022-12-22T05:30:50.084Z,996.33
2022-12-22T05:31:50.030Z,996.30
2022-12-22T05:32:50.017Z,996.36
2022-12-22T05:33:50.026Z,996.33
2022-12-22T05:34:50.042Z,996.39
2022-12-22T05:35:50.006Z,996.41
2022-12-22T05:36:50.001Z,996.45
2022-12-22T05:37:50.004Z,996.44
2022-12-22T05:38:49.997Z,996.44
2022-12-22T05:39:49.990Z,996.45
2022-12-22T05:40:49.991Z,996.44
2022-12-22T05:41:49.996Z,996.42
2022-12-22T05:42:50.002Z,996.43
2022-12-22T05:43:49.971Z,996.45
2022-12-22T05:44:49.969Z,996.43
2022-12-22T05:45:50.041Z,996.41
2022-12-22T05:46:49.962Z,996.44
2022-12-22T05:47:49.963Z,996.40
2022-12-22T05:48:49.954Z,996.43
2022-12-22T05:49:49.949Z,996.47
2022-12-22T05:50:49.944Z,996.39
2022-12-22T05:51:49.940Z,996.37
2022-12-22T05:52:49.938Z,996.36
2022-12-22T05:53:49.956Z,996.37
2022-12-22T05:54:49.945Z,996.34
2022-12-22T05:55:49.923Z,996.36
2022-12-22T05:56:49.920Z,996.38
2022-12-22T05:57:49.916Z,996.38
2022-12-22T05:58:49.940Z,996.45
2022-12-22T05:59:49.917Z,996.44
2022-12-22T06:00:49.903Z,996.43
2022-12-22T06:01:49.921Z,996.44
2022-12-22T06:02:50.072Z,996.46
2022-12-22T06:03:53.361Z,996.40
2022-12-22T06:04:49.890Z,996.46
2022-12-22T06:05:49.888Z,996.47
2022-12-22T06:06:49.889Z,996.49
2022-12-22T06:07:49.881Z,996.47
2022-12-22T06:08:49.897Z,996.49
2022-12-22T06:09:49.868Z,996.48
2022-12-22T06:10:49.872Z,996.48
2022-12-22T06:11:49.861Z,996.43
2022-12-22T06:12:49.871Z,996.47
2022-12-22T06:13:49.858Z,996.48
2022-12-22T06:14:49.879Z,996.50
2022-12-22T06:15:49.965Z,996.57
2022-12-22T06:16:49.841Z,996.57
2022-12-22T06:17:49.845Z,996.57
2022-12-22T06:18:49.844Z,996.61
2022-12-22T06:19:49.837Z,996.60
2022-12-22T06:20:49.834Z,996.55
2022-12-22T06:21:49.825Z,996.50
2022-12-22T06:22:49.822Z,996.47
2022-12-22T06:23:49.815Z,996.49
2022-12-22T06:24:49.821Z,996.51
2022-12-22T06:25:49.826Z,996.48
2022-12-22T06:26:49.803Z,996.50
2022-12-22T06:27:49.809Z,996.52
2022-12-22T06:28:49.796Z,996.55
2022-12-22T06:29:49.792Z,996.55
2022-12-22T06:30:49.841Z,996.57
2022-12-22T06:31:49.844Z,996.57
2022-12-22T06:32:49.778Z,996.61
2022-12-22T06:33:49.774Z,996.59
2022-12-22T06:34:49.771Z,996.61
2022-12-22T06:35:57.404Z,996.60
2022-12-22T06:36:49.765Z,996.58
2022-12-22T06:37:49.756Z,996.60
2022-12-22T06:38:49.763Z,996.63
2022-12-22T06:39:49.748Z,996.64
2022-12-22T06:40:49.746Z,996.67
2022-12-22T06:41:49.743Z,996.63
2022-12-22T06:42:49.751Z,996.67
2022-12-22T06:43:49.739Z,996.67
2022-12-22T06:44:49.731Z,996.67
2022-12-22T06:45:49.743Z,996.70
2022-12-22T06:46:49.821Z,996.71
2022-12-22T06:47:49.785Z,996.72
2022-12-22T06:48:49.717Z,996.70
2022-12-22T06:49:49.751Z,996.75
2022-12-22T06:50:49.705Z,996.75
2022-12-22T06:51:49.701Z,996.79
2022-12-22T06:52:49.700Z,996.76
2022-12-22T06:53:49.696Z,996.80
2022-12-22T06:54:49.688Z,996.81
2022-12-22T06:55:49.689Z,996.86
2022-12-22T06:56:49.682Z,996.92
2022-12-22T06:57:49.687Z,996.88
2022-12-22T06:58:49.683Z,996.91
2022-12-22T06:59:55.348Z,996.90
2022-12-22T07:00:49.716Z,996.96
2022-12-22T07:01:49.827Z,996.95
2022-12-22T07:02:49.961Z,996.93
2022-12-22T07:03:49.672Z,996.96
2022-12-22T07:04:49.656Z,996.97
2022-12-22T07:05:49.648Z,996.99
2022-12-22T07:06:49.651Z,996.98
2022-12-22T07:07:49.642Z,996.98
2022-12-22T07:08:49.634Z,996.98
2022-12-22T07:09:49.631Z,997.00
2022-12-22T07:10:49.627Z,997.03
2022-12-22T07:11:49.625Z,997.05
2022-12-22T07:12:49.618Z,997.07
2022-12-22T07:13:49.614Z,997.10
2022-12-22T07:14:49.612Z,997.10
2022-12-22T07:15:55.599Z,997.10
2022-12-22T07:16:49.721Z,997.10
2022-12-22T07:17:49.602Z,997.13
2022-12-22T07:18:49.613Z,997.17
2022-12-22T07:19:49.589Z,997.18
2022-12-22T07:20:49.601Z,997.20
2022-12-22T07:21:49.579Z,997.22
2022-12-22T07:22:49.585Z,997.26
2022-12-22T07:23:49.573Z,997.27
2022-12-22T07:24:49.573Z,997.23
2022-12-22T07:25:49.589Z,997.30
2022-12-22T07:26:49.565Z,997.29
2022-12-22T07:27:49.564Z,997.31
2022-12-22T07:28:49.552Z,997.34
2022-12-22T07:29:49.554Z,997.35
2022-12-22T07:30:49.624Z,997.33
2022-12-22T07:31:49.617Z,997.36
2022-12-22T07:32:49.546Z,997.37
2022-12-22T07:33:49.541Z,997.39
2022-12-22T07:34:49.550Z,997.45
2022-12-22T07:35:49.547Z,997.50
2022-12-22T07:36:49.526Z,997.50
2022-12-22T07:37:49.545Z,997.58
2022-12-22T07:38:49.566Z,997.59
2022-12-22T07:39:49.507Z,997.60
2022-12-22T07:40:52.120Z,997.62
2022-12-22T07:41:49.533Z,997.66
2022-12-22T07:42:49.495Z,997.70
2022-12-22T07:43:49.507Z,997.74
2022-12-22T07:44:49.567Z,997.78
2022-12-22T07:45:49.499Z,997.82
2022-12-22T07:46:49.567Z,997.80
2022-12-22T07:47:49.504Z,997.86
2022-12-22T07:48:49.472Z,997.89
2022-12-22T07:49:49.476Z,997.89
2022-12-22T07:50:49.547Z,998.00
2022-12-22T07:51:49.477Z,998.02
2022-12-22T07:52:49.456Z,998.03
2022-12-22T07:53:49.455Z,998.07
2022-12-22T07:54:49.449Z,998.12
2022-12-22T07:55:49.452Z,998.09
2022-12-22T07:56:49.443Z,998.12
2022-12-22T07:57:49.438Z,998.11
2022-12-22T07:58:49.434Z,998.09
2022-12-22T07:59:49.434Z,998.10
2022-12-22T08:00:49.423Z,998.12
2022-12-22T08:01:49.524Z,998.15
2022-12-22T08:02:49.590Z,998.17
2022-12-22T08:03:49.416Z,998.17
2022-12-22T08:04:49.470Z,998.19
2022-12-22T08:05:49.405Z,998.20
2022-12-22T08:06:49.424Z,998.21
2022-12-22T08:07:49.398Z,998.22
2022-12-22T08:08:49.392Z,998.24
2022-12-22T08:09:49.392Z,998.26
2022-12-22T08:10:49.430Z,998.23
2022-12-22T08:11:49.381Z,998.21
2022-12-22T08:12:49.462Z,998.28
2022-12-22T08:13:49.386Z,998.25
2022-12-22T08:14:49.374Z,998.27
2022-12-22T08:15:49.503Z,998.27
2022-12-22T08:16:49.540Z,998.32
2022-12-22T08:17:49.359Z,998.38
2022-12-22T08:18:49.354Z,998.38
2022-12-22T08:19:49.351Z,998.37
2022-12-22T08:20:49.346Z,998.36
2022-12-22T08:21:53.034Z,998.41
2022-12-22T08:22:49.360Z,998.42
2022-12-22T08:23:49.339Z,998.40
2022-12-22T08:24:49.334Z,998.43
2022-12-22T08:25:49.332Z,998.47
2022-12-22T08:26:49.331Z,998.45
2022-12-22T08:27:49.316Z,998.51
2022-12-22T08:28:49.316Z,998.51
2022-12-22T08:29:49.311Z,998.55
2022-12-22T08:30:49.305Z,998.61
2022-12-22T08:31:49.446Z,998.64
2022-12-22T08:32:49.299Z,998.71
2022-12-22T08:33:49.294Z,998.72
2022-12-22T08:34:49.293Z,998.77
2022-12-22T08:35:49.289Z,998.79
2022-12-22T08:36:49.294Z,998.85
2022-12-22T08:37:49.277Z,998.89
2022-12-22T08:38:49.309Z,998.91
2022-12-22T08:39:49.269Z,998.94
2022-12-22T08:40:49.264Z,998.99
2022-12-22T08:41:49.261Z,998.97
2022-12-22T08:42:49.254Z,999.01
2022-12-22T08:43:49.254Z,999.07
2022-12-22T08:44:49.245Z,999.10
2022-12-22T08:45:49.243Z,999.14
2022-12-22T08:46:49.308Z,999.15
2022-12-22T08:47:49.237Z,999.15
2022-12-22T08:48:49.230Z,999.22
2022-12-22T08:49:49.228Z,999.23
2022-12-22T08:50:49.230Z,999.23
2022-12-22T08:51:49.226Z,999.23
2022-12-22T08:52:49.229Z,999.27
2022-12-22T08:54:06.201Z,999.24
2022-12-22T08:54:49.228Z,999.25
2022-12-22T08:55:49.204Z,999.31
2022-12-22T08:56:49.209Z,999.28
2022-12-22T08:57:55.665Z,999.34
2022-12-22T08:58:49.190Z,999.32
2022-12-22T08:59:49.196Z,999.35
2022-12-22T09:00:49.254Z,999.34
2022-12-22T09:01:49.300Z,999.34
2022-12-22T09:02:49.354Z,999.36
2022-12-22T09:03:49.169Z,999.36
2022-12-22T09:04:49.164Z,999.38
2022-12-22T09:05:49.159Z,999.37
2022-12-22T09:06:49.183Z,999.39
2022-12-22T09:07:49.179Z,999.41
2022-12-22T09:08:49.166Z,999.42
2022-12-22T09:09:49.146Z,999.45
2022-12-22T09:10:49.168Z,999.44
2022-12-22T09:11:49.139Z,999.43
2022-12-22T09:12:49.128Z,999.48
2022-12-22T09:13:49.129Z,999.52
2022-12-22T09:14:49.121Z,999.51
2022-12-22T09:15:49.142Z,999.56
2022-12-22T09:16:49.216Z,999.57
2022-12-22T09:17:49.109Z,999.60
2022-12-22T09:18:49.105Z,999.61
2022-12-22T09:19:49.105Z,999.64
2022-12-22T09:20:49.094Z,999.70
2022-12-22T09:21:49.097Z,999.69
2022-12-22T09:22:49.100Z,999.76
2022-12-22T09:23:49.085Z,999.78
2022-12-22T09:24:49.084Z,999.81
2022-12-22T09:25:49.074Z,999.84
2022-12-22T09:26:49.444Z,999.86
2022-12-22T09:27:49.098Z,999.93
2022-12-22T09:28:50.790Z,999.95
2022-12-22T09:29:49.068Z,999.96
2022-12-22T09:30:49.054Z,999.98
2022-12-22T09:31:49.155Z,1000.00
2022-12-22T09:32:49.043Z,1000.03
2022-12-22T09:33:49.055Z,1000.08
2022-12-22T09:34:49.037Z,1000.14
2022-12-22T09:35:49.036Z,1000.14
2022-12-22T09:36:49.049Z,1000.20
2022-12-22T09:37:49.065Z,1000.25
2022-12-22T09:38:49.042Z,1000.24
2022-12-22T09:39:49.016Z,1000.20
2022-12-22T09:40:49.012Z,1000.24
2022-12-22T09:41:49.009Z,1000.21
2022-12-22T09:42:49.026Z,1000.21
2022-12-22T09:43:49.004Z,1000.21
2022-12-22T09:44:48.995Z,1000.17
2022-12-22T09:45:49.073Z,1000.17
2022-12-22T09:46:48.986Z,1000.18
2022-12-22T09:47:48.984Z,1000.23
2022-12-22T09:48:48.979Z,1000.23
2022-12-22T09:49:48.973Z,1000.25
2022-12-22T09:50:48.972Z,1000.25
2022-12-22T09:51:48.988Z,1000.22
2022-12-22T09:52:48.963Z,1000.26
2022-12-22T09:53:48.960Z,1000.27
2022-12-22T09:54:48.959Z,1000.33
2022-12-22T09:55:48.953Z,1000.34
2022-12-22T09:56:48.957Z,1000.37
2022-12-22T09:57:48.953Z,1000.40
2022-12-22T09:58:48.960Z,1000.44
2022-12-22T09:59:48.937Z,1000.47
2022-12-22T10:00:48.974Z,1000.49
2022-12-22T10:01:49.012Z,1000.49
2022-12-22T10:02:48.934Z,1000.52
2022-12-22T10:03:49.017Z,1000.57
2022-12-22T10:04:48.912Z,1000.62
2022-12-22T10:05:48.910Z,1000.64
2022-12-22T10:06:48.904Z,1000.71
2022-12-22T10:07:48.920Z,1000.76
2022-12-22T10:08:48.894Z,1000.77
2022-12-22T10:09:51.285Z,1000.86
2022-12-22T10:10:48.893Z,1000.78
2022-12-22T10:11:48.886Z,1000.78
2022-12-22T10:12:48.879Z,1000.79
2022-12-22T10:13:48.887Z,1000.79
2022-12-22T10:14:48.894Z,1000.82
2022-12-22T10:15:48.878Z,1000.86
2022-12-22T10:16:48.939Z,1000.85
2022-12-22T10:17:48.862Z,1000.90
2022-12-22T10:18:48.857Z,1000.89
2022-12-22T10:19:48.853Z,1000.87
2022-12-22T10:20:48.847Z,1000.86
2022-12-22T10:21:48.844Z,1000.86
2022-12-22T10:22:48.849Z,1000.89
2022-12-22T10:23:48.836Z,1000.89
2022-12-22T10:24:48.834Z,1000.86
2022-12-22T10:26:48.822Z,1000.91
2022-12-22T10:27:51.565Z,1000.89
2022-12-22T10:28:48.820Z,1000.88
2022-12-22T10:29:48.835Z,1000.87
2022-12-22T10:30:48.831Z,1000.83
2022-12-22T10:31:48.867Z,1000.84
2022-12-22T10:32:48.808Z,1000.90
2022-12-22T10:33:48.804Z,1000.93
2022-12-22T10:34:48.793Z,1000.92
2022-12-22T10:35:48.795Z,1000.97
2022-12-22T10:36:48.782Z,1000.97
2022-12-22T10:37:48.782Z,1000.98
2022-12-22T10:38:48.777Z,1001.01
2022-12-22T10:39:48.776Z,1001.01
2022-12-22T10:40:48.776Z,1000.99
2022-12-22T10:41:48.798Z,1001.02
2022-12-22T10:42:48.757Z,1001.02
2022-12-22T10:43:48.755Z,1001.01
2022-12-22T10:44:48.782Z,1001.03
2022-12-22T10:45:48.796Z,1001.07
2022-12-22T10:46:48.760Z,1001.08
2022-12-22T10:47:48.738Z,1001.10
2022-12-22T10:48:48.743Z,1001.11
2022-12-22T10:49:48.738Z,1001.11
2022-12-22T10:50:48.731Z,1001.17
2022-12-22T10:51:48.723Z,1001.22
2022-12-22T10:52:48.724Z,1001.25
2022-12-22T10:53:48.725Z,1001.24
2022-12-22T10:54:48.710Z,1001.25
2022-12-22T10:55:48.705Z,1001.24
2022-12-22T10:56:48.701Z,1001.25
2022-12-22T10:57:48.709Z,1001.24
2022-12-22T10:58:48.695Z,1001.22
2022-12-22T10:59:48.688Z,1001.23
2022-12-22T11:00:48.684Z,1001.22
2022-12-22T11:01:48.864Z,1001.18
2022-12-22T11:02:48.895Z,1001.18
2022-12-22T11:03:48.713Z,1001.25
2022-12-22T11:04:48.672Z,1001.28
2022-12-22T11:05:48.667Z,1001.34
2022-12-22T11:06:48.669Z,1001.30
2022-12-22T11:07:48.686Z,1001.33
2022-12-22T11:08:51.508Z,1001.42
2022-12-22T11:09:48.671Z,1001.41
2022-12-22T11:10:48.648Z,1001.49
2022-12-22T11:11:48.650Z,1001.52
2022-12-22T11:12:48.635Z,1001.54
2022-12-22T11:13:48.634Z,1001.55
2022-12-22T11:14:48.628Z,1001.56
2022-12-22T11:15:48.625Z,1001.56
2022-12-22T11:16:48.655Z,1001.54
2022-12-22T11:17:48.623Z,1001.54
2022-12-22T11:18:48.659Z,1001.51
2022-12-22T11:19:48.616Z,1001.51
2022-12-22T11:20:48.603Z,1001.56
2022-12-22T11:21:48.612Z,1001.56
2022-12-22T11:22:48.598Z,1001.60
2022-12-22T11:23:48.597Z,1001.61
2022-12-22T11:24:48.590Z,1001.64
2022-12-22T11:25:48.587Z,1001.63
2022-12-22T11:26:48.586Z,1001.64
2022-12-22T11:27:48.585Z,1001.69
2022-12-22T11:28:48.584Z,1001.73
2022-12-22T11:29:48.572Z,1001.74
2022-12-22T11:30:48.602Z,1001.75
2022-12-22T11:31:48.768Z,1001.73
2022-12-22T11:32:48.568Z,1001.80
2022-12-22T11:33:48.554Z,1001.80
2022-12-22T11:34:48.573Z,1001.81
2022-12-22T11:35:48.546Z,1001.81
2022-12-22T11:36:48.565Z,1001.80
2022-12-22T11:37:48.567Z,1001.79
2022-12-22T11:38:48.537Z,1001.81
2022-12-22T11:39:48.543Z,1001.88
2022-12-22T11:40:48.541Z,1001.79
2022-12-22T11:41:48.534Z,1001.87
2022-12-22T11:42:48.515Z,1001.90
2022-12-22T11:43:48.520Z,1001.86
2022-12-22T11:44:48.512Z,1001.84
2022-12-22T11:45:48.522Z,1001.85
2022-12-22T11:46:48.589Z,1001.84
2022-12-22T11:47:48.498Z,1001.84
2022-12-22T11:48:48.503Z,1001.82
2022-12-22T11:49:48.489Z,1001.84
2022-12-22T11:51:01.518Z,1001.82
2022-12-22T11:51:48.481Z,1001.84
2022-12-22T11:52:48.531Z,1001.87
2022-12-22T11:53:48.480Z,1001.81
2022-12-22T11:54:48.474Z,1001.87
2022-12-22T11:55:48.470Z,1001.86
2022-12-22T11:56:48.480Z,1001.91
2022-12-22T11:57:48.474Z,1001.96
2022-12-22T11:58:48.481Z,1002.00
2022-12-22T11:59:48.457Z,1002.00
2022-12-22T12:01:17.529Z,1002.04
2022-12-22T12:01:48.540Z,1002.01
2022-12-22T12:02:48.515Z,1002.00
2022-12-22T12:03:48.497Z,1001.99
2022-12-22T12:04:48.440Z,1001.96
2022-12-22T12:05:48.437Z,1002.00
2022-12-22T12:06:48.455Z,1002.03
2022-12-22T12:07:48.437Z,1002.05
2022-12-22T12:08:48.426Z,1002.03
2022-12-22T12:09:48.417Z,1002.06
2022-12-22T12:10:48.409Z,1002.06
2022-12-22T12:11:48.407Z,1002.03
2022-12-22T12:12:48.413Z,1002.08
2022-12-22T12:13:48.401Z,1002.05
2022-12-22T12:14:48.405Z,1002.06
2022-12-22T12:15:48.518Z,1002.08
2022-12-22T12:16:48.389Z,1002.09
2022-12-22T12:17:48.389Z,1002.16
2022-12-22T12:18:48.379Z,1002.18
2022-12-22T12:19:48.379Z,1002.23
2022-12-22T12:20:48.388Z,1002.20
2022-12-22T12:21:48.367Z,1002.25
2022-12-22T12:22:48.392Z,1002.26